createdAt,value
2018-09-26T00:02:08.667Z,5.60
2018-09-26T00:04:43.127Z,5.60
2018-09-26T00:07:12.538Z,5.80
2018-09-26T00:09:41.966Z,5.80
2018-09-26T00:12:11.435Z,5.70
2018-09-26T00:14:40.782Z,5.70
2018-09-26T00:17:10.106Z,5.60
2018-09-26T00:19:39.515Z,5.60
2018-09-26T00:22:09.644Z,5.60
2018-09-26T00:24:38.988Z,5.60
2018-09-26T00:27:08.449Z,5.50
2018-09-26T00:29:37.795Z,5.50
2018-09-26T00:32:07.299Z,5.50
2018-09-26T00:34:36.766Z,5.50
2018-09-26T00:37:06.269Z,5.60
2018-09-26T00:39:35.704Z,5.50
2018-09-26T00:42:05.199Z,5.50
2018-09-26T00:44:34.596Z,5.40
2018-09-26T00:47:04.056Z,5.30
2018-09-26T00:49:36.477Z,5.30
2018-09-26T00:52:05.925Z,5.40
2018-09-26T00:54:37.257Z,5.40
2018-09-26T00:57:06.740Z,5.30
2018-09-26T00:59:36.176Z,5.30
2018-09-26T01:02:05.854Z,5.30
2018-09-26T01:04:40.877Z,5.30
2018-09-26T01:07:10.208Z,5.30
2018-09-26T01:09:39.684Z,5.30
2018-09-26T01:12:10.643Z,5.30
2018-09-26T01:14:40.014Z,5.10
2018-09-26T01:17:09.490Z,5.20
2018-09-26T01:19:38.850Z,5.20
2018-09-26T01:22:08.382Z,5.10
2018-09-26T01:24:37.886Z,5.00
2018-09-26T01:27:08.700Z,5.00
2018-09-26T01:29:38.123Z,5.00
2018-09-26T01:32:07.562Z,5.00
2018-09-26T01:34:37.046Z,5.00
2018-09-26T01:37:06.612Z,5.00
2018-09-26T01:39:35.924Z,5.00
2018-09-26T01:42:06.443Z,4.90
2018-09-26T01:44:35.841Z,4.80
2018-09-26T01:47:05.224Z,4.80
2018-09-26T01:49:34.602Z,4.80
2018-09-26T01:52:04.956Z,4.90
2018-09-26T01:54:34.452Z,4.90
2018-09-26T01:57:03.842Z,4.90
2018-09-26T01:59:34.216Z,5.00
2018-09-26T02:02:03.707Z,5.00
2018-09-26T02:04:33.113Z,5.00
2018-09-26T02:07:02.483Z,4.90
2018-09-26T02:09:31.853Z,4.80
2018-09-26T02:12:01.268Z,4.90
2018-09-26T02:14:30.799Z,4.90
2018-09-26T02:17:04.082Z,4.80
2018-09-26T02:19:37.353Z,4.80
2018-09-26T02:22:07.428Z,4.70
2018-09-26T02:24:36.801Z,4.80
2018-09-26T02:27:06.547Z,4.70
2018-09-26T02:29:35.941Z,4.70
2018-09-26T02:32:05.383Z,4.70
2018-09-26T02:34:35.486Z,4.60
2018-09-26T02:37:07.472Z,4.60
2018-09-26T02:39:37.495Z,4.70
2018-09-26T02:42:06.950Z,4.60
2018-09-26T02:44:37.279Z,4.60
2018-09-26T02:47:06.676Z,4.50
2018-09-26T02:49:36.643Z,4.40
2018-09-26T02:52:07.099Z,4.50
2018-09-26T02:54:36.529Z,4.60
2018-09-26T02:57:05.854Z,4.60
2018-09-26T02:59:35.440Z,4.60
2018-09-26T03:02:04.873Z,4.60
2018-09-26T03:04:35.063Z,4.70
2018-09-26T03:07:04.480Z,4.70
2018-09-26T03:09:33.989Z,4.70
2018-09-26T03:12:03.411Z,4.70
2018-09-26T03:14:32.763Z,4.60
2018-09-26T03:17:04.200Z,4.60
2018-09-26T03:19:35.674Z,4.60
2018-09-26T03:22:05.208Z,4.70
2018-09-26T03:24:34.570Z,4.70
2018-09-26T03:27:03.967Z,4.80
2018-09-26T03:29:33.984Z,5.00
2018-09-26T03:32:03.347Z,5.20
2018-09-26T03:34:32.889Z,5.20
2018-09-26T03:37:02.219Z,5.30
2018-09-26T03:39:31.634Z,5.40
2018-09-26T03:42:01.300Z,5.50
2018-09-26T03:44:30.754Z,5.50
2018-09-26T03:47:00.086Z,5.60
2018-09-26T03:49:30.474Z,5.70
2018-09-26T03:51:59.830Z,5.70
2018-09-26T03:54:29.203Z,5.80
2018-09-26T03:56:58.544Z,5.80
2018-09-26T03:59:27.927Z,5.90
2018-09-26T04:01:57.303Z,6.00
2018-09-26T04:04:26.684Z,6.10
2018-09-26T04:06:56.827Z,6.10
2018-09-26T04:09:27.032Z,6.20
2018-09-26T04:11:56.441Z,6.20
2018-09-26T04:14:25.776Z,6.30
2018-09-26T04:16:56.245Z,6.30
2018-09-26T04:19:25.876Z,6.40
2018-09-26T04:21:55.327Z,6.50
2018-09-26T04:24:24.695Z,6.60
2018-09-26T04:26:54.541Z,6.60
2018-09-26T04:29:24.306Z,6.70
2018-09-26T04:31:54.696Z,6.70
2018-09-26T04:34:25.071Z,6.70
2018-09-26T04:36:54.515Z,6.70
2018-09-26T04:39:24.847Z,6.80
2018-09-26T04:41:54.419Z,6.90
2018-09-26T04:44:25.787Z,7.00
2018-09-26T04:46:55.124Z,7.10
2018-09-26T04:49:24.671Z,7.10
2018-09-26T04:51:56.127Z,7.10
2018-09-26T04:54:25.581Z,7.10
2018-09-26T04:56:54.959Z,7.10
2018-09-26T04:59:25.903Z,7.10
2018-09-26T05:01:56.284Z,7.10
2018-09-26T05:04:26.142Z,7.10
2018-09-26T05:06:55.692Z,7.10
2018-09-26T05:09:25.188Z,7.10
2018-09-26T05:11:54.611Z,7.10
2018-09-26T05:14:24.095Z,7.10
2018-09-26T05:16:53.545Z,7.10
2018-09-26T05:19:23.003Z,7.20
2018-09-26T05:21:53.366Z,7.30
2018-09-26T05:24:22.776Z,7.30
2018-09-26T05:26:52.145Z,7.30
2018-09-26T05:29:22.558Z,7.30
2018-09-26T05:31:52.110Z,7.00
2018-09-26T05:34:21.435Z,6.90
2018-09-26T05:36:50.931Z,6.90
2018-09-26T05:39:20.304Z,6.90
2018-09-26T05:41:49.807Z,7.00
2018-09-26T05:44:19.214Z,7.00
2018-09-26T05:46:49.520Z,6.80
2018-09-26T05:49:18.846Z,6.80
2018-09-26T05:51:48.254Z,6.90
2018-09-26T05:54:17.629Z,6.90
2018-09-26T05:56:47.022Z,6.80
2018-09-26T05:59:20.251Z,6.80
2018-09-26T06:01:50.304Z,6.80
2018-09-26T06:04:19.817Z,6.80
2018-09-26T06:06:49.220Z,6.90
2018-09-26T06:09:18.654Z,6.80
2018-09-26T06:11:48.047Z,6.80
2018-09-26T06:14:17.490Z,6.80
2018-09-26T06:16:48.169Z,6.70
2018-09-26T06:19:17.699Z,6.70
2018-09-26T06:21:47.162Z,6.70
2018-09-26T06:24:16.583Z,6.80
2018-09-26T06:26:45.969Z,6.90
2018-09-26T06:29:16.344Z,6.80
2018-09-26T06:31:46.311Z,6.80
2018-09-26T06:34:15.686Z,7.00
2018-09-26T06:36:45.229Z,7.10
2018-09-26T06:39:14.553Z,7.10
2018-09-26T06:41:44.033Z,7.20
2018-09-26T06:44:13.342Z,7.20
2018-09-26T06:46:42.701Z,7.20
2018-09-26T06:49:12.044Z,7.10
2018-09-26T06:51:41.422Z,7.20
2018-09-26T06:54:10.877Z,7.40
2018-09-26T06:56:40.323Z,7.40
2018-09-26T06:59:11.825Z,7.30
2018-09-26T07:01:41.311Z,7.40
2018-09-26T07:04:10.713Z,7.40
2018-09-26T07:06:41.197Z,7.40
2018-09-26T07:09:11.324Z,7.50
2018-09-26T07:11:40.744Z,7.60
2018-09-26T07:14:11.395Z,7.70
2018-09-26T07:16:41.041Z,7.90
2018-09-26T07:19:12.865Z,7.90
2018-09-26T07:21:43.339Z,7.90
2018-09-26T07:24:12.866Z,8.10
2018-09-26T07:26:42.324Z,8.40
2018-09-26T07:29:11.954Z,8.40
2018-09-26T07:31:41.343Z,8.40
2018-09-26T07:34:11.771Z,8.40
2018-09-26T07:36:41.844Z,8.60
2018-09-26T07:39:13.007Z,8.70
2018-09-26T07:41:42.378Z,8.70
2018-09-26T07:44:12.819Z,8.60
2018-09-26T07:46:43.340Z,8.60
2018-09-26T07:49:12.650Z,8.70
2018-09-26T07:51:42.770Z,8.80
2018-09-26T07:54:12.107Z,8.90
2018-09-26T07:56:41.563Z,8.70
2018-09-26T07:59:11.614Z,8.80
2018-09-26T08:01:41.041Z,8.90
2018-09-26T08:04:10.457Z,8.90
2018-09-26T08:06:39.836Z,9.10
2018-09-26T08:09:10.260Z,9.10
2018-09-26T08:11:39.599Z,9.40
2018-09-26T08:14:08.995Z,9.40
2018-09-26T08:16:38.491Z,9.60
2018-09-26T08:19:08.043Z,9.80
2018-09-26T08:21:37.433Z,10.00
2018-09-26T08:24:07.023Z,9.90
2018-09-26T08:26:37.008Z,10.20
2018-09-26T08:29:06.352Z,10.20
2018-09-26T08:31:35.771Z,10.10
2018-09-26T08:34:05.375Z,10.20
2018-09-26T08:36:35.769Z,10.30
2018-09-26T08:39:09.307Z,10.40
2018-09-26T08:41:38.739Z,10.40
2018-09-26T08:44:09.301Z,10.40
2018-09-26T08:46:38.865Z,10.50
2018-09-26T08:49:08.257Z,10.80
2018-09-26T08:51:38.852Z,10.70
2018-09-26T08:54:08.410Z,10.80
2018-09-26T08:56:38.828Z,11.00
2018-09-26T08:59:08.331Z,11.10
2018-09-26T09:01:42.977Z,11.20
2018-09-26T09:04:12.407Z,11.10
2018-09-26T09:06:41.895Z,11.20
2018-09-26T09:09:11.280Z,11.40
2018-09-26T09:11:40.780Z,11.40
2018-09-26T09:14:10.325Z,11.40
2018-09-26T09:16:39.830Z,11.40
2018-09-26T09:19:10.294Z,11.50
2018-09-26T09:21:39.831Z,11.50
2018-09-26T09:24:09.337Z,11.80
2018-09-26T09:26:38.721Z,11.70
2018-09-26T09:29:08.175Z,11.80
2018-09-26T09:31:38.149Z,11.70
2018-09-26T09:34:07.655Z,11.70
2018-09-26T09:36:37.160Z,11.70
2018-09-26T09:39:08.389Z,11.30
2018-09-26T09:41:37.985Z,11.40
2018-09-26T09:44:07.752Z,11.40
2018-09-26T09:46:37.370Z,11.40
2018-09-26T09:49:07.161Z,11.50
2018-09-26T09:51:36.589Z,11.50
2018-09-26T09:54:11.095Z,11.60
2018-09-26T09:56:40.463Z,11.70
2018-09-26T09:59:09.885Z,11.30
2018-09-26T10:01:39.471Z,11.40
2018-09-26T10:04:08.831Z,11.50
2018-09-26T10:06:38.217Z,11.40
2018-09-26T10:09:08.204Z,11.50
2018-09-26T10:11:37.643Z,11.50
2018-09-26T10:14:07.065Z,11.60
2018-09-26T10:16:37.453Z,11.80
2018-09-26T10:19:06.919Z,11.90
2018-09-26T10:21:36.188Z,12.00
2018-09-26T10:24:05.461Z,12.10
2018-09-26T10:26:34.832Z,12.10
2018-09-26T10:29:04.237Z,12.10
2018-09-26T10:31:35.347Z,12.20
2018-09-26T10:34:04.793Z,12.30
2018-09-26T10:36:34.111Z,12.20
2018-09-26T10:39:03.997Z,12.20
2018-09-26T10:41:33.383Z,12.30
2018-09-26T10:44:03.848Z,11.90
2018-09-26T10:46:33.119Z,11.80
2018-09-26T10:49:02.323Z,12.00
2018-09-26T10:51:31.642Z,11.90
2018-09-26T10:54:00.964Z,12.00
2018-09-26T10:56:30.361Z,12.00
2018-09-26T10:58:59.582Z,12.20
2018-09-26T11:01:28.909Z,12.30
2018-09-26T11:03:58.456Z,12.70
2018-09-26T11:06:27.757Z,12.80
2018-09-26T11:08:57.272Z,12.80
2018-09-26T11:11:26.528Z,13.10
2018-09-26T11:13:56.953Z,13.10
2018-09-26T11:16:26.312Z,13.20
2018-09-26T11:18:55.656Z,13.30
2018-09-26T11:21:24.892Z,13.70
2018-09-26T11:23:54.405Z,13.50
2018-09-26T11:26:23.889Z,13.40
2018-09-26T11:28:53.234Z,13.40
2018-09-26T11:31:22.533Z,13.00
2018-09-26T11:33:51.895Z,12.80
2018-09-26T11:36:21.143Z,12.90
2018-09-26T11:38:50.551Z,13.00
2018-09-26T11:41:19.835Z,12.90
2018-09-26T11:43:49.101Z,13.20
2018-09-26T11:46:18.597Z,13.30
2018-09-26T11:48:47.980Z,13.50
2018-09-26T11:51:17.348Z,13.80
2018-09-26T11:53:46.608Z,13.90
2018-09-26T11:56:15.945Z,14.00
2018-09-26T11:58:45.241Z,14.10
2018-09-26T12:01:15.583Z,14.00
2018-09-26T12:03:44.939Z,13.90
2018-09-26T12:06:16.204Z,14.00
2018-09-26T12:08:45.514Z,13.70
2018-09-26T12:11:14.804Z,13.60
2018-09-26T12:13:44.270Z,13.50
2018-09-26T12:16:13.633Z,13.60
2018-09-26T12:18:43.902Z,13.50
2018-09-26T12:21:13.239Z,13.60
2018-09-26T12:23:42.503Z,13.60
2018-09-26T12:26:12.860Z,13.70
2018-09-26T12:28:42.171Z,13.60
2018-09-26T12:31:11.450Z,13.90
2018-09-26T12:33:40.703Z,14.00
2018-09-26T12:36:10.215Z,14.20
2018-09-26T12:38:39.409Z,14.20
2018-09-26T12:41:08.681Z,14.20
2018-09-26T12:43:38.069Z,14.20
2018-09-26T12:46:07.420Z,14.10
2018-09-26T12:48:36.730Z,14.10
2018-09-26T12:51:06.047Z,14.40
2018-09-26T12:53:35.491Z,14.60
2018-09-26T12:56:04.818Z,14.70
2018-09-26T12:58:34.139Z,14.70
2018-09-26T13:01:04.490Z,14.30
2018-09-26T13:03:33.835Z,14.50
2018-09-26T13:06:03.127Z,14.70
2018-09-26T13:08:32.412Z,14.50
2018-09-26T13:11:01.864Z,14.60
2018-09-26T13:13:31.192Z,14.70
2018-09-26T13:16:00.479Z,14.60
2018-09-26T13:18:29.804Z,14.50
2018-09-26T13:20:59.169Z,14.60
2018-09-26T13:23:28.577Z,15.00
2018-09-26T13:25:57.898Z,15.00
2018-09-26T13:28:29.433Z,15.00
2018-09-26T13:30:58.761Z,15.20
2018-09-26T13:33:28.006Z,14.90
2018-09-26T13:35:57.314Z,14.80
2018-09-26T13:38:26.646Z,14.90
2018-09-26T13:40:55.973Z,15.00
2018-09-26T13:43:25.927Z,15.00
2018-09-26T13:45:55.391Z,14.90
2018-09-26T13:48:24.646Z,14.90
2018-09-26T13:50:54.560Z,15.20
2018-09-26T13:53:23.819Z,15.20
2018-09-26T13:55:53.116Z,15.20
2018-09-26T13:58:22.464Z,15.20
2018-09-26T14:00:52.302Z,15.40
2018-09-26T14:03:21.585Z,15.50
2018-09-26T14:05:50.889Z,15.70
2018-09-26T14:08:20.236Z,15.70
2018-09-26T14:10:49.597Z,15.60
2018-09-26T14:13:20.664Z,15.50
2018-09-26T14:15:50.108Z,15.50
2018-09-26T14:18:19.479Z,15.40
2018-09-26T14:20:48.907Z,15.30
2018-09-26T14:23:18.190Z,15.50
2018-09-26T14:25:47.423Z,15.40
2018-09-26T14:28:16.756Z,15.30
2018-09-26T14:30:46.088Z,15.40
2018-09-26T14:33:15.332Z,15.50
2018-09-26T14:35:44.548Z,15.20
2018-09-26T14:38:13.917Z,15.10
2018-09-26T14:40:43.201Z,15.10
2018-09-26T14:43:12.517Z,15.10
2018-09-26T14:45:41.849Z,15.40
2018-09-26T14:48:12.040Z,15.50
2018-09-26T14:50:43.703Z,15.40
2018-09-26T14:53:13.051Z,15.40
2018-09-26T14:55:42.413Z,15.50
2018-09-26T14:58:11.779Z,15.50
2018-09-26T15:00:40.997Z,15.50
2018-09-26T15:03:10.288Z,15.50
2018-09-26T15:05:39.561Z,15.50
2018-09-26T15:08:08.979Z,15.60
2018-09-26T15:10:38.319Z,15.60
2018-09-26T15:13:07.635Z,15.50
2018-09-26T15:15:36.920Z,15.50
2018-09-26T15:18:06.232Z,15.50
2018-09-26T15:20:35.778Z,15.60
2018-09-26T15:23:04.947Z,15.60
2018-09-26T15:25:34.272Z,15.60
2018-09-26T15:28:03.527Z,15.60
2018-09-26T15:30:33.050Z,15.60
2018-09-26T15:33:02.342Z,15.60
2018-09-26T15:35:31.763Z,15.60
2018-09-26T15:38:02.331Z,15.60
2018-09-26T15:40:31.786Z,15.50
2018-09-26T15:43:02.151Z,15.60
2018-09-26T15:45:31.686Z,15.60
2018-09-26T15:48:01.102Z,15.50
2018-09-26T15:50:30.420Z,15.50
2018-09-26T15:52:59.781Z,15.50
2018-09-26T15:55:29.215Z,15.50
2018-09-26T15:57:58.503Z,15.60
2018-09-26T16:00:27.848Z,15.60
2018-09-26T16:02:57.275Z,15.60
2018-09-26T16:05:27.196Z,15.50
2018-09-26T16:07:56.497Z,15.50
2018-09-26T16:10:25.922Z,15.50
2018-09-26T16:12:55.265Z,15.50
2018-09-26T16:15:24.558Z,15.50
2018-09-26T16:17:53.848Z,15.40
2018-09-26T16:20:23.481Z,15.30
2018-09-26T16:22:52.947Z,15.20
2018-09-26T16:25:22.378Z,15.20
2018-09-26T16:27:51.605Z,15.10
2018-09-26T16:30:20.940Z,15.20
2018-09-26T16:32:51.137Z,15.20
2018-09-26T16:35:20.411Z,15.10
2018-09-26T16:37:51.841Z,15.10
2018-09-26T16:40:22.259Z,15.00
2018-09-26T16:42:55.424Z,15.00
2018-09-26T16:45:24.886Z,15.00
2018-09-26T16:47:54.075Z,14.90
2018-09-26T16:50:24.056Z,14.90
2018-09-26T16:52:53.491Z,14.80
2018-09-26T16:55:23.868Z,14.60
2018-09-26T16:57:53.180Z,14.50
2018-09-26T17:00:22.674Z,14.40
2018-09-26T17:02:51.959Z,14.20
2018-09-26T17:05:21.355Z,14.00
2018-09-26T17:07:50.987Z,13.90
2018-09-26T17:10:20.550Z,13.80
2018-09-26T17:12:49.829Z,13.60
2018-09-26T17:15:19.338Z,13.50
2018-09-26T17:17:48.865Z,13.40
2018-09-26T17:20:18.273Z,13.30
2018-09-26T17:22:47.618Z,13.20
2018-09-26T17:25:16.961Z,13.20
2018-09-26T17:27:46.351Z,13.20
2018-09-26T17:30:17.623Z,13.10
2018-09-26T17:32:47.081Z,13.00
2018-09-26T17:35:16.699Z,13.00
2018-09-26T17:37:46.028Z,12.90
2018-09-26T17:40:15.426Z,12.80
2018-09-26T17:42:45.525Z,12.80
2018-09-26T17:45:14.849Z,12.70
2018-09-26T17:47:44.903Z,12.60
2018-09-26T17:50:14.135Z,12.50
2018-09-26T17:52:44.081Z,12.40
2018-09-26T17:55:13.459Z,12.30
2018-09-26T17:57:42.772Z,12.20
2018-09-26T18:00:12.147Z,12.20
2018-09-26T18:02:41.444Z,12.10
2018-09-26T18:05:11.844Z,12.10
2018-09-26T18:07:41.444Z,12.10
2018-09-26T18:10:11.361Z,12.00
2018-09-26T18:12:41.106Z,12.00
2018-09-26T18:15:11.755Z,12.00
2018-09-26T18:17:41.177Z,11.90
2018-09-26T18:20:10.541Z,12.00
2018-09-26T18:22:40.752Z,12.10
2018-09-26T18:25:11.273Z,12.20
2018-09-26T18:27:40.670Z,12.30
2018-09-26T18:30:10.025Z,12.30
2018-09-26T18:32:39.505Z,12.30
2018-09-26T18:35:08.831Z,12.30
2018-09-26T18:37:38.263Z,12.20
2018-09-26T18:40:07.690Z,12.20
2018-09-26T18:42:37.084Z,12.10
2018-09-26T18:45:07.061Z,12.10
2018-09-26T18:47:36.425Z,12.10
2018-09-26T18:50:05.709Z,12.00
2018-09-26T18:52:34.979Z,12.00
2018-09-26T18:55:04.270Z,12.00
2018-09-26T18:57:33.836Z,11.90
2018-09-26T19:00:03.176Z,11.90
2018-09-26T19:02:32.576Z,11.90
2018-09-26T19:05:02.104Z,11.90
2018-09-26T19:07:31.383Z,11.90
2018-09-26T19:10:01.959Z,11.90
2018-09-26T19:12:31.268Z,11.90
2018-09-26T19:15:00.520Z,12.00
2018-09-26T19:17:29.903Z,12.00
2018-09-26T19:19:59.202Z,12.10
2018-09-26T19:22:28.580Z,12.00
2018-09-26T19:24:57.912Z,12.00
2018-09-26T19:27:27.227Z,12.00
2018-09-26T19:29:57.619Z,12.00
2018-09-26T19:32:26.899Z,11.90
2018-09-26T19:34:56.183Z,11.80
2018-09-26T19:37:25.742Z,11.80
2018-09-26T19:39:55.071Z,11.70
2018-09-26T19:42:25.470Z,11.70
2018-09-26T19:44:54.737Z,11.70
2018-09-26T19:47:24.054Z,11.70
2018-09-26T19:49:53.506Z,11.70
2018-09-26T19:52:22.900Z,11.60
2018-09-26T19:54:52.152Z,11.60
2018-09-26T19:57:22.575Z,11.70
2018-09-26T19:59:52.049Z,11.70
2018-09-26T20:02:21.349Z,11.70
2018-09-26T20:04:50.617Z,11.70
2018-09-26T20:07:19.879Z,11.70
2018-09-26T20:09:49.299Z,11.70
2018-09-26T20:12:18.711Z,11.70
2018-09-26T20:14:48.013Z,11.70
2018-09-26T20:17:17.244Z,11.70
2018-09-26T20:19:46.854Z,11.60
2018-09-26T20:22:16.166Z,11.60
2018-09-26T20:24:45.441Z,11.60
2018-09-26T20:27:14.957Z,11.50
2018-09-26T20:29:44.397Z,11.50
2018-09-26T20:32:13.603Z,11.40
2018-09-26T20:34:43.267Z,11.50
2018-09-26T20:37:12.784Z,11.50
2018-09-26T20:39:42.162Z,11.50
2018-09-26T20:42:11.543Z,11.50
2018-09-26T20:44:40.830Z,11.60
2018-09-26T20:47:10.810Z,11.70
2018-09-26T20:49:42.083Z,11.70
2018-09-26T20:52:11.645Z,11.60
2018-09-26T20:54:40.907Z,11.60
2018-09-26T20:57:10.249Z,11.50
2018-09-26T20:59:40.848Z,11.40
2018-09-26T21:02:10.103Z,11.30
2018-09-26T21:04:39.423Z,11.30
2018-09-26T21:07:08.686Z,11.20
2018-09-26T21:09:37.949Z,11.20
2018-09-26T21:12:07.341Z,11.00
2018-09-26T21:14:36.639Z,11.00
2018-09-26T21:17:05.848Z,11.00
2018-09-26T21:19:35.125Z,10.90
2018-09-26T21:22:04.387Z,10.80
2018-09-26T21:24:34.446Z,10.70
2018-09-26T21:27:03.723Z,10.70
2018-09-26T21:29:33.011Z,10.70
2018-09-26T21:32:03.306Z,10.70
2018-09-26T21:34:32.566Z,10.70
2018-09-26T21:37:01.832Z,10.70
2018-09-26T21:39:31.110Z,10.70
2018-09-26T21:42:00.442Z,10.70
2018-09-26T21:44:29.762Z,10.70
2018-09-26T21:46:59.039Z,10.60
2018-09-26T21:49:28.361Z,10.60
2018-09-26T21:51:57.824Z,10.60
2018-09-26T21:54:27.120Z,10.50
2018-09-26T21:56:57.409Z,10.50
2018-09-26T21:59:26.650Z,10.50
2018-09-26T22:01:56.430Z,10.40
2018-09-26T22:04:26.271Z,10.40
2018-09-26T22:06:56.136Z,10.50
2018-09-26T22:09:26.581Z,10.50
2018-09-26T22:11:56.595Z,10.50
2018-09-26T22:14:26.403Z,10.50
2018-09-26T22:16:56.144Z,10.50
2018-09-26T22:19:26.213Z,10.40
2018-09-26T22:21:56.167Z,10.40
2018-09-26T22:24:25.996Z,10.40
2018-09-26T22:26:55.768Z,10.40
2018-09-26T22:29:26.524Z,10.40
2018-09-26T22:32:01.165Z,10.40
2018-09-26T22:34:30.935Z,10.40
2018-09-26T22:37:00.712Z,10.50
2018-09-26T22:39:30.544Z,10.50
2018-09-26T22:42:00.284Z,10.50
2018-09-26T22:44:30.307Z,10.50
2018-09-26T22:47:00.339Z,10.50
2018-09-26T22:49:30.229Z,10.40
2018-09-26T22:51:59.994Z,10.40
2018-09-26T22:54:29.920Z,10.30
2018-09-26T22:57:00.675Z,10.30
2018-09-26T22:59:30.473Z,10.30
2018-09-26T23:02:00.638Z,10.20
2018-09-26T23:04:31.173Z,10.10
2018-09-26T23:07:00.987Z,10.00
2018-09-26T23:09:30.799Z,10.00
2018-09-26T23:12:00.581Z,10.10
2018-09-26T23:14:30.524Z,10.10
2018-09-26T23:17:00.325Z,10.10
2018-09-26T23:19:30.135Z,10.10
2018-09-26T23:21:59.880Z,10.00
2018-09-26T23:24:29.603Z,9.90
2018-09-26T23:26:59.395Z,9.90
2018-09-26T23:29:29.198Z,9.90
2018-09-26T23:31:59.020Z,9.90
2018-09-26T23:34:28.932Z,9.80
2018-09-26T23:36:58.680Z,9.80
2018-09-26T23:39:28.589Z,9.70
2018-09-26T23:41:59.101Z,9.70
2018-09-26T23:44:28.969Z,9.70
2018-09-26T23:46:58.772Z,9.60
2018-09-26T23:49:28.601Z,9.50
2018-09-26T23:51:58.459Z,9.50
2018-09-26T23:54:29.327Z,9.50
2018-09-26T23:56:59.124Z,9.70
2018-09-26T23:59:28.970Z,9.70
